createdAt,value
2022-11-22T00:00:52.084Z,25.83
2022-11-22T00:02:23.929Z,23.98
2022-11-22T00:03:55.676Z,22.25
2022-11-22T00:05:27.494Z,23.17
2022-11-22T00:06:59.205Z,23.95
2022-11-22T00:08:30.962Z,22.60
2022-11-22T00:10:02.744Z,20.33
2022-11-22T00:11:34.487Z,18.58
2022-11-22T00:13:06.229Z,18.13
2022-11-22T00:14:37.968Z,17.75
2022-11-22T00:16:09.727Z,17.60
2022-11-22T00:17:41.636Z,17.65
2022-11-22T00:19:13.575Z,16.65
2022-11-22T00:20:45.315Z,16.98
2022-11-22T00:22:17.045Z,14.60
2022-11-22T00:23:48.817Z,16.40
2022-11-22T00:25:20.566Z,15.38
2022-11-22T00:26:52.442Z,16.15
2022-11-22T00:28:24.337Z,15.80
2022-11-22T00:29:56.044Z,15.40
2022-11-22T00:31:27.788Z,17.52
2022-11-22T00:32:59.509Z,16.73
2022-11-22T00:34:31.328Z,17.27
2022-11-22T00:36:03.188Z,16.33
2022-11-22T00:37:34.992Z,14.77
2022-11-22T00:39:06.805Z,15.20
2022-11-22T00:40:38.560Z,16.42
2022-11-22T00:42:10.293Z,15.80
2022-11-22T00:43:42.045Z,15.80
2022-11-22T00:45:13.835Z,15.07
2022-11-22T00:46:45.579Z,15.18
2022-11-22T00:48:17.366Z,14.98
2022-11-22T00:49:49.099Z,15.93
2022-11-22T00:51:20.851Z,15.60
2022-11-22T00:52:52.575Z,15.52
2022-11-22T00:54:24.619Z,16.42
2022-11-22T00:55:56.370Z,16.70
2022-11-22T00:57:28.126Z,16.25
2022-11-22T00:58:59.896Z,17.80
2022-11-22T01:00:31.859Z,17.63
2022-11-22T01:02:03.665Z,17.95
2022-11-22T01:03:35.863Z,17.27
2022-11-22T01:05:07.871Z,16.70
2022-11-22T01:06:39.722Z,18.52
2022-11-22T01:08:11.490Z,15.90
2022-11-22T01:09:43.228Z,17.00
2022-11-22T01:11:17.957Z,16.98
2022-11-22T01:12:49.748Z,16.02
2022-11-22T01:14:21.568Z,17.27
2022-11-22T01:15:54.025Z,18.25
2022-11-22T01:17:26.535Z,17.92
2022-11-22T01:18:58.323Z,16.00
2022-11-22T01:20:30.999Z,17.48
2022-11-22T01:22:02.763Z,18.05
2022-11-22T01:23:35.182Z,16.40
2022-11-22T01:25:08.077Z,17.58
2022-11-22T01:26:39.838Z,16.02
2022-11-22T01:28:12.160Z,14.68
2022-11-22T01:29:43.932Z,16.42
2022-11-22T01:31:15.675Z,15.95
2022-11-22T01:32:47.434Z,16.23
2022-11-22T01:34:19.211Z,15.30
2022-11-22T01:35:51.037Z,14.80
2022-11-22T01:37:22.789Z,15.73
2022-11-22T01:38:54.797Z,14.73
2022-11-22T01:40:27.107Z,16.92
2022-11-22T01:41:59.025Z,17.20
2022-11-22T01:43:30.755Z,16.65
2022-11-22T01:45:30.131Z,17.48
2022-11-22T01:47:13.597Z,13.82
2022-11-22T01:49:00.831Z,13.40
2022-11-22T01:50:36.773Z,12.68
2022-11-22T01:52:18.628Z,14.63
2022-11-22T01:53:52.247Z,14.07
2022-11-22T01:55:24.045Z,15.38
2022-11-22T01:57:02.157Z,15.77
2022-11-22T01:58:37.075Z,15.60
2022-11-22T02:00:12.075Z,14.15
2022-11-22T02:01:50.031Z,15.10
2022-11-22T02:03:23.151Z,14.55
2022-11-22T02:04:58.140Z,15.30
2022-11-22T02:06:52.263Z,15.32
2022-11-22T02:08:56.336Z,14.07
2022-11-22T02:10:34.047Z,12.32
2022-11-22T02:12:08.636Z,15.02
2022-11-22T02:13:43.711Z,15.05
2022-11-22T02:15:15.460Z,15.98
2022-11-22T02:16:48.446Z,17.08
2022-11-22T02:18:20.331Z,16.00
2022-11-22T02:19:53.534Z,16.70
2022-11-22T02:21:25.289Z,16.83
2022-11-22T02:23:09.077Z,16.35
2022-11-22T02:24:57.013Z,14.30
2022-11-22T02:26:29.869Z,14.23
2022-11-22T02:28:01.905Z,14.80
2022-11-22T02:29:34.298Z,14.90
2022-11-22T02:31:06.535Z,15.38
2022-11-22T02:32:38.242Z,14.55
2022-11-22T02:34:11.437Z,15.60
2022-11-22T02:35:44.669Z,14.32
2022-11-22T02:37:21.521Z,14.20
2022-11-22T02:38:54.087Z,14.55
2022-11-22T02:40:27.973Z,14.05
2022-11-22T02:41:59.772Z,12.60
2022-11-22T02:43:35.119Z,15.00
2022-11-22T02:45:07.366Z,15.55
2022-11-22T02:46:54.272Z,15.38
2022-11-22T02:48:25.998Z,14.25
2022-11-22T02:49:57.731Z,16.60
2022-11-22T02:51:29.506Z,16.10
2022-11-22T02:53:01.276Z,16.02
2022-11-22T02:54:32.996Z,17.15
2022-11-22T02:56:05.018Z,17.58
2022-11-22T02:57:36.754Z,16.85
2022-11-22T02:59:09.011Z,16.02
2022-11-22T03:00:41.010Z,15.68
2022-11-22T03:02:12.817Z,15.85
2022-11-22T03:03:44.568Z,15.80
2022-11-22T03:05:16.539Z,14.38
2022-11-22T03:06:48.283Z,15.80
2022-11-22T03:08:19.999Z,15.90
2022-11-22T03:09:51.749Z,14.27
2022-11-22T03:11:24.437Z,15.13
2022-11-22T03:12:57.672Z,15.38
2022-11-22T03:14:29.399Z,15.35
2022-11-22T03:16:01.158Z,13.65
2022-11-22T03:17:32.912Z,13.82
2022-11-22T03:19:04.652Z,14.05
2022-11-22T03:20:36.400Z,14.55
2022-11-22T03:22:08.809Z,14.65
2022-11-22T03:23:41.752Z,16.35
2022-11-22T03:25:13.485Z,14.25
2022-11-22T03:26:47.468Z,15.50
2022-11-22T03:28:19.303Z,14.63
2022-11-22T03:29:51.047Z,14.73
2022-11-22T03:31:22.871Z,16.23
2022-11-22T03:32:55.553Z,16.10
2022-11-22T03:34:27.294Z,15.20
2022-11-22T03:35:59.032Z,16.85
2022-11-22T03:37:30.782Z,14.60
2022-11-22T03:39:02.519Z,14.90
2022-11-22T03:40:34.574Z,14.68
2022-11-22T03:42:06.325Z,16.15
2022-11-22T03:43:38.648Z,15.65
2022-11-22T03:45:10.778Z,15.65
2022-11-22T03:46:42.556Z,14.45
2022-11-22T03:48:14.895Z,15.20
2022-11-22T03:49:46.616Z,14.40
2022-11-22T03:51:18.412Z,15.70
2022-11-22T03:52:50.116Z,14.63
2022-11-22T03:54:21.879Z,15.32
2022-11-22T03:55:53.656Z,15.27
2022-11-22T03:57:25.400Z,15.35
2022-11-22T03:58:57.179Z,16.38
2022-11-22T04:00:29.356Z,15.55
2022-11-22T04:02:01.241Z,17.05
2022-11-22T04:03:33.110Z,15.63
2022-11-22T04:05:05.178Z,16.75
2022-11-22T04:06:37.084Z,16.70
2022-11-22T04:08:08.805Z,14.30
2022-11-22T04:09:40.546Z,14.57
2022-11-22T04:11:12.431Z,13.45
2022-11-22T04:12:44.154Z,14.23
2022-11-22T04:14:51.326Z,14.57
2022-11-22T04:16:23.138Z,11.77
2022-11-22T04:17:54.948Z,12.25
2022-11-22T04:19:26.864Z,13.25
2022-11-22T04:21:17.197Z,14.63
2022-11-22T04:23:06.647Z,12.25
2022-11-22T04:24:56.802Z,10.95
2022-11-22T04:26:28.524Z,12.05
2022-11-22T04:28:01.095Z,12.52
2022-11-22T04:29:33.161Z,12.40
2022-11-22T04:31:23.701Z,14.43
2022-11-22T04:32:55.436Z,13.05
2022-11-22T04:34:27.181Z,12.20
2022-11-22T04:35:58.949Z,14.18
2022-11-22T04:37:30.675Z,13.65
2022-11-22T04:39:02.407Z,13.27
2022-11-22T04:40:34.369Z,13.50
2022-11-22T04:42:31.976Z,14.00
2022-11-22T04:44:22.436Z,10.57
2022-11-22T04:45:54.342Z,10.98
2022-11-22T04:47:49.959Z,11.90
2022-11-22T04:49:22.295Z,11.85
2022-11-22T04:51:12.695Z,12.23
2022-11-22T04:52:56.193Z,12.13
2022-11-22T04:54:27.934Z,12.20
2022-11-22T04:55:59.783Z,13.43
2022-11-22T04:57:31.505Z,14.27
2022-11-22T04:59:03.790Z,14.93
2022-11-22T05:00:36.024Z,14.85
2022-11-22T05:02:07.923Z,14.45
2022-11-22T05:03:39.681Z,15.18
2022-11-22T05:05:11.551Z,14.38
2022-11-22T05:06:43.286Z,14.18
2022-11-22T05:08:15.203Z,14.38
2022-11-22T05:09:46.944Z,17.02
2022-11-22T05:11:18.798Z,17.00
2022-11-22T05:12:50.570Z,19.85
2022-11-22T05:14:22.290Z,21.65
2022-11-22T05:15:54.319Z,17.42
2022-11-22T05:17:26.040Z,18.50
2022-11-22T05:19:00.672Z,18.70
2022-11-22T05:20:32.403Z,18.63
2022-11-22T05:22:04.149Z,18.55
2022-11-22T05:23:54.352Z,18.58
2022-11-22T05:25:26.152Z,16.95
2022-11-22T05:26:57.897Z,17.55
2022-11-22T05:28:31.035Z,18.63
2022-11-22T05:30:02.993Z,18.30
2022-11-22T05:31:36.787Z,18.08
2022-11-22T05:33:08.546Z,16.88
2022-11-22T05:34:40.273Z,18.50
2022-11-22T05:36:13.030Z,19.27
2022-11-22T05:37:44.805Z,19.13
2022-11-22T05:39:16.547Z,24.17
2022-11-22T05:40:48.290Z,21.55
2022-11-22T05:42:20.070Z,19.50
2022-11-22T05:43:54.451Z,22.63
2022-11-22T05:45:26.193Z,20.38
2022-11-22T05:46:57.945Z,22.33
2022-11-22T05:48:29.682Z,26.58
2022-11-22T05:50:01.622Z,25.02
2022-11-22T05:51:34.863Z,20.58
2022-11-22T05:53:07.023Z,23.67
2022-11-22T05:54:38.799Z,26.35
2022-11-22T05:56:13.151Z,24.13
2022-11-22T05:57:44.861Z,25.48
2022-11-22T05:59:16.611Z,23.15
2022-11-22T06:00:48.398Z,25.13
2022-11-22T06:02:20.723Z,21.15
2022-11-22T06:03:52.780Z,21.75
2022-11-22T06:05:24.505Z,25.27
2022-11-22T06:06:56.287Z,26.08
2022-11-22T06:08:33.070Z,29.38
2022-11-22T06:10:05.017Z,27.20
2022-11-22T06:11:36.781Z,27.70
2022-11-22T06:13:08.681Z,30.05
2022-11-22T06:14:43.549Z,29.40
2022-11-22T06:16:16.165Z,29.60
2022-11-22T06:17:48.048Z,30.25
2022-11-22T06:19:19.768Z,27.92
2022-11-22T06:20:51.499Z,26.95
2022-11-22T06:22:23.283Z,29.08
2022-11-22T06:23:55.806Z,31.33
2022-11-22T06:25:27.555Z,31.75
2022-11-22T06:26:59.341Z,31.33
2022-11-22T06:28:33.055Z,31.25
2022-11-22T06:30:05.249Z,32.05
2022-11-22T06:31:37.286Z,33.42
2022-11-22T06:33:09.007Z,37.60
2022-11-22T06:34:40.749Z,31.88
2022-11-22T06:36:23.877Z,32.55
2022-11-22T06:38:00.499Z,33.58
2022-11-22T06:39:33.205Z,33.80
2022-11-22T06:41:07.626Z,32.92
2022-11-22T06:42:39.369Z,33.78
2022-11-22T06:44:11.160Z,30.52
2022-11-22T06:45:42.924Z,35.50
2022-11-22T06:47:14.672Z,35.00
2022-11-22T06:48:47.215Z,34.03
2022-11-22T06:50:21.914Z,31.60
2022-11-22T06:51:53.857Z,30.85
2022-11-22T06:53:46.295Z,29.52
2022-11-22T06:55:48.465Z,33.05
2022-11-22T06:57:14.314Z,27.70
2022-11-22T06:58:47.497Z,29.38
2022-11-22T07:00:19.711Z,30.20
2022-11-22T07:01:51.587Z,30.38
2022-11-22T07:03:23.364Z,27.58
2022-11-22T07:05:17.661Z,30.63
2022-11-22T07:06:47.396Z,29.42
2022-11-22T07:08:19.186Z,29.38
2022-11-22T07:09:56.127Z,31.30
2022-11-22T07:11:30.232Z,25.50
2022-11-22T07:13:01.989Z,28.08
2022-11-22T07:14:33.718Z,28.20
2022-11-22T07:16:07.454Z,29.08
2022-11-22T07:17:39.182Z,28.75
2022-11-22T07:19:10.992Z,30.77
2022-11-22T07:20:42.751Z,28.77
2022-11-22T07:22:14.475Z,30.08
2022-11-22T07:23:48.205Z,29.05
2022-11-22T07:25:19.956Z,28.50
2022-11-22T07:26:51.757Z,29.90
2022-11-22T07:28:24.148Z,29.98
2022-11-22T07:29:55.861Z,31.02
2022-11-22T07:31:28.377Z,34.30
2022-11-22T07:33:00.217Z,33.20
2022-11-22T07:34:32.064Z,37.15
2022-11-22T07:36:17.909Z,32.00
2022-11-22T07:37:49.648Z,30.83
2022-11-22T07:39:21.467Z,29.42
2022-11-22T07:40:53.219Z,33.65
2022-11-22T07:42:26.374Z,35.60
2022-11-22T07:43:58.957Z,30.70
2022-11-22T07:45:30.681Z,33.47
2022-11-22T07:47:02.450Z,33.92
2022-11-22T07:48:34.502Z,31.02
2022-11-22T07:50:07.029Z,29.77
2022-11-22T07:51:38.784Z,31.33
2022-11-22T07:53:10.568Z,31.27
2022-11-22T07:54:42.284Z,29.58
2022-11-22T07:56:14.429Z,29.52
2022-11-22T07:57:46.179Z,30.30
2022-11-22T07:59:18.923Z,32.88
2022-11-22T08:00:50.650Z,30.33
2022-11-22T08:02:22.383Z,33.28
2022-11-22T08:03:54.156Z,31.20
2022-11-22T08:05:26.450Z,33.50
2022-11-22T08:06:58.208Z,32.88
2022-11-22T08:08:30.674Z,30.55
2022-11-22T08:10:02.446Z,32.97
2022-11-22T08:11:34.376Z,30.13
2022-11-22T08:13:06.268Z,34.97
2022-11-22T08:14:38.017Z,34.45
2022-11-22T08:16:13.722Z,35.22
2022-11-22T08:17:45.522Z,32.33
2022-11-22T08:19:18.108Z,50.80
2022-11-22T08:20:49.872Z,34.13
2022-11-22T08:22:21.619Z,32.50
2022-11-22T08:23:58.520Z,36.40
2022-11-22T08:25:30.294Z,36.95
2022-11-22T08:27:02.056Z,34.83
2022-11-22T08:28:34.504Z,34.08
2022-11-22T08:30:06.647Z,36.90
2022-11-22T08:31:39.632Z,38.05
2022-11-22T08:33:11.368Z,27.60
2022-11-22T08:34:47.083Z,29.40
2022-11-22T08:36:19.381Z,32.08
2022-11-22T08:37:55.535Z,27.15
2022-11-22T08:39:27.855Z,33.05
2022-11-22T08:40:59.833Z,31.00
2022-11-22T08:42:32.245Z,28.77
2022-11-22T08:44:04.215Z,28.65
2022-11-22T08:45:35.978Z,28.38
2022-11-22T08:47:07.747Z,26.92
2022-11-22T08:48:39.540Z,26.83
2022-11-22T08:50:11.371Z,28.98
2022-11-22T08:51:45.061Z,25.75
2022-11-22T08:53:16.817Z,27.08
2022-11-22T08:54:48.562Z,24.00
2022-11-22T08:56:20.439Z,28.95
2022-11-22T08:57:52.169Z,24.65
2022-11-22T08:59:24.537Z,27.50
2022-11-22T09:00:57.020Z,25.60
2022-11-22T09:02:28.736Z,27.25
2022-11-22T09:04:00.519Z,24.92
2022-11-22T09:05:32.637Z,25.58
2022-11-22T09:09:15.266Z,26.08
2022-11-22T09:10:48.964Z,26.95
2022-11-22T09:12:21.065Z,24.90
2022-11-22T09:13:52.801Z,25.65
2022-11-22T09:15:24.633Z,24.10
2022-11-22T09:16:56.378Z,24.13
2022-11-22T09:18:28.126Z,21.40
2022-11-22T09:19:59.849Z,24.13
2022-11-22T09:21:31.616Z,22.50
2022-11-22T09:23:04.256Z,24.27
2022-11-22T09:24:35.990Z,23.02
2022-11-22T09:26:10.835Z,25.42
2022-11-22T09:27:42.559Z,22.23
2022-11-22T09:29:16.000Z,23.00
2022-11-22T09:30:47.822Z,22.90
2022-11-22T09:32:19.670Z,22.02
2022-11-22T09:33:51.825Z,21.55
2022-11-22T09:35:23.579Z,21.70
2022-11-22T09:36:55.391Z,23.83
2022-11-22T09:38:27.633Z,21.17
2022-11-22T09:39:59.405Z,24.30
2022-11-22T09:41:48.442Z,24.23
2022-11-22T09:43:44.834Z,26.30
2022-11-22T09:45:25.385Z,26.58
2022-11-22T09:47:11.674Z,26.70
2022-11-22T09:49:16.476Z,26.98
2022-11-22T09:51:10.089Z,29.70
2022-11-22T09:52:44.534Z,24.33
2022-11-22T09:54:37.893Z,25.83
2022-11-22T09:56:13.600Z,28.02
2022-11-22T09:57:52.792Z,26.98
2022-11-22T09:59:31.223Z,23.85
2022-11-22T10:01:12.788Z,25.10
2022-11-22T10:03:00.223Z,23.23
2022-11-22T10:04:40.381Z,21.50
2022-11-22T10:06:19.652Z,22.42
2022-11-22T10:08:28.636Z,22.77
2022-11-22T10:10:13.211Z,23.58
2022-11-22T10:11:48.019Z,22.65
2022-11-22T10:13:30.953Z,21.30
2022-11-22T10:15:07.636Z,18.88
2022-11-22T10:16:44.329Z,20.52
2022-11-22T10:18:40.133Z,22.33
2022-11-22T10:20:24.258Z,19.45
2022-11-22T10:21:56.009Z,23.75
2022-11-22T10:23:27.999Z,25.65
2022-11-22T10:25:02.704Z,22.02
2022-11-22T10:26:36.849Z,25.80
2022-11-22T10:28:34.029Z,24.80
2022-11-22T10:30:14.809Z,26.13
2022-11-22T10:32:14.453Z,22.73
2022-11-22T10:34:10.841Z,24.02
2022-11-22T10:36:06.957Z,24.05
2022-11-22T10:37:53.695Z,25.10
2022-11-22T10:39:38.270Z,19.92
2022-11-22T10:41:31.556Z,23.08
2022-11-22T10:43:06.448Z,24.05
2022-11-22T10:44:50.059Z,18.55
2022-11-22T10:46:50.104Z,19.90
2022-11-22T10:48:32.636Z,20.73
2022-11-22T10:50:19.142Z,22.58
2022-11-22T10:52:29.255Z,18.80
2022-11-22T10:54:13.154Z,22.55
2022-11-22T10:56:14.036Z,20.23
2022-11-22T10:58:07.612Z,20.33
2022-11-22T11:00:16.302Z,21.40
2022-11-22T11:02:01.650Z,24.48
2022-11-22T11:03:43.174Z,22.13
2022-11-22T11:05:19.846Z,22.13
2022-11-22T11:07:16.425Z,20.70
2022-11-22T11:09:48.047Z,21.17
2022-11-22T11:10:47.859Z,23.30
2022-11-22T11:12:21.394Z,22.77
2022-11-22T11:13:58.492Z,23.25
2022-11-22T11:15:48.124Z,22.45
2022-11-22T11:17:29.579Z,23.13
2022-11-22T11:19:25.075Z,25.45
2022-11-22T11:20:56.916Z,26.13
2022-11-22T11:23:06.333Z,24.17
2022-11-22T11:24:24.113Z,25.50
2022-11-22T11:25:56.209Z,21.15
2022-11-22T11:27:30.845Z,23.15
2022-11-22T11:29:17.794Z,24.85
2022-11-22T11:31:08.108Z,26.58
2022-11-22T11:32:55.634Z,24.88
2022-11-22T11:34:29.702Z,25.77
2022-11-22T11:36:06.697Z,29.08
2022-11-22T11:37:38.874Z,22.85
2022-11-22T11:39:28.099Z,24.33
2022-11-22T11:41:17.638Z,26.63
2022-11-22T11:42:49.393Z,22.35
2022-11-22T11:44:36.469Z,26.05
2022-11-22T11:46:40.305Z,26.42
2022-11-22T11:48:28.493Z,26.17
2022-11-22T11:50:01.167Z,28.90
2022-11-22T11:51:39.369Z,24.25
2022-11-22T11:53:26.598Z,23.02
2022-11-22T11:55:02.424Z,25.33
2022-11-22T11:56:45.269Z,23.58
2022-11-22T11:58:23.170Z,27.20
2022-11-22T11:59:56.855Z,22.92
2022-11-22T12:01:28.900Z,25.33
2022-11-22T12:03:04.877Z,30.55
2022-11-22T12:04:56.781Z,22.15
2022-11-22T12:06:32.414Z,32.88
2022-11-22T12:08:31.530Z,24.83
2022-11-22T12:10:28.501Z,28.85
2022-11-22T12:12:11.466Z,26.95
2022-11-22T12:15:56.838Z,32.00
2022-11-22T12:17:35.733Z,27.63
2022-11-22T12:19:30.350Z,28.05
2022-11-22T12:21:26.970Z,25.48
2022-11-22T12:23:14.462Z,25.08
2022-11-22T12:25:31.510Z,26.88
2022-11-22T12:27:00.042Z,28.48
2022-11-22T12:28:32.133Z,30.00
2022-11-22T12:30:06.428Z,24.95
2022-11-22T12:31:48.739Z,27.83
2022-11-22T12:33:28.682Z,29.48
2022-11-22T12:35:10.789Z,29.85
2022-11-22T12:36:52.915Z,28.95
2022-11-22T12:38:31.760Z,26.60
2022-11-22T12:40:12.949Z,26.02
2022-11-22T12:41:47.691Z,24.88
2022-11-22T12:43:30.336Z,25.58
2022-11-22T12:45:07.206Z,27.23
2022-11-22T12:46:49.887Z,26.77
2022-11-22T12:48:38.098Z,27.30
2022-11-22T12:50:17.652Z,27.10
2022-11-22T12:52:04.566Z,30.80
2022-11-22T12:53:41.538Z,28.23
2022-11-22T12:55:22.088Z,27.55
2022-11-22T12:56:57.518Z,29.27
2022-11-22T12:59:05.878Z,27.17
2022-11-22T13:00:46.482Z,29.38
2022-11-22T13:03:01.238Z,33.78
2022-11-22T13:04:45.640Z,27.98
2022-11-22T13:06:21.959Z,26.38
2022-11-22T13:08:00.963Z,25.40
2022-11-22T13:09:36.353Z,27.15
2022-11-22T13:11:16.587Z,26.52
2022-11-22T13:12:49.412Z,28.05
2022-11-22T13:14:29.184Z,26.88
2022-11-22T13:16:06.930Z,26.50
2022-11-22T13:17:39.689Z,28.40
2022-11-22T13:19:15.512Z,25.98
2022-11-22T13:21:22.446Z,29.98
2022-11-22T13:23:08.406Z,29.77
2022-11-22T13:25:04.254Z,27.95
2022-11-22T13:26:45.811Z,25.98
2022-11-22T13:28:22.352Z,28.67
2022-11-22T13:29:57.851Z,28.58
2022-11-22T13:31:29.594Z,29.45
2022-11-22T13:33:01.449Z,26.02
2022-11-22T13:34:36.352Z,27.98
2022-11-22T13:36:29.584Z,28.77
2022-11-22T13:38:15.605Z,29.40
2022-11-22T13:39:49.534Z,29.35
2022-11-22T13:41:30.329Z,24.75
2022-11-22T13:43:19.637Z,31.52
2022-11-22T13:44:56.646Z,26.30
2022-11-22T13:46:47.199Z,25.98
2022-11-22T13:48:57.558Z,24.25
2022-11-22T13:51:01.467Z,25.15
2022-11-22T13:52:52.039Z,29.85
2022-11-22T13:54:37.828Z,27.33
2022-11-22T13:56:38.548Z,26.23
2022-11-22T13:58:25.628Z,26.38
2022-11-22T14:00:15.663Z,28.98
2022-11-22T14:01:47.397Z,28.25
2022-11-22T14:03:21.335Z,25.80
2022-11-22T14:04:56.591Z,28.02
2022-11-22T14:06:30.769Z,28.98
2022-11-22T14:08:04.633Z,31.35
2022-11-22T14:09:42.433Z,28.80
2022-11-22T14:11:20.313Z,28.35
2022-11-22T14:13:16.497Z,29.40
2022-11-22T14:14:54.997Z,27.50
2022-11-22T14:16:38.503Z,27.50
2022-11-22T14:18:57.785Z,25.35
2022-11-22T14:20:49.163Z,33.70
2022-11-22T14:22:34.199Z,29.27
2022-11-22T14:24:39.855Z,27.40
2022-11-22T14:26:20.177Z,27.95
2022-11-22T14:28:03.118Z,27.55
2022-11-22T14:30:07.431Z,27.98
2022-11-22T14:31:40.069Z,28.60
2022-11-22T14:33:16.724Z,31.50
2022-11-22T14:35:18.710Z,31.50
2022-11-22T14:37:16.872Z,28.88
2022-11-22T14:38:48.638Z,26.35
2022-11-22T14:40:41.574Z,29.42
2022-11-22T14:42:49.529Z,32.35
2022-11-22T14:44:32.090Z,33.15
2022-11-22T14:46:51.207Z,29.85
2022-11-22T14:48:17.753Z,27.80
2022-11-22T14:49:51.165Z,26.63
2022-11-22T14:51:32.047Z,28.00
2022-11-22T14:54:52.495Z,25.52
2022-11-22T14:56:34.118Z,29.92
2022-11-22T14:58:12.539Z,30.17
2022-11-22T15:00:10.716Z,28.63
2022-11-22T15:01:48.171Z,28.75
2022-11-22T15:09:11.518Z,27.63
2022-11-22T15:09:15.081Z,27.27
2022-11-22T15:09:17.236Z,27.17
2022-11-22T15:10:27.506Z,28.30
2022-11-22T15:12:05.463Z,31.42
2022-11-22T15:13:58.070Z,28.70
2022-11-22T15:57:28.800Z,31.40
2022-11-22T15:59:01.007Z,30.00
2022-11-22T16:00:32.967Z,28.27
2022-11-22T16:02:18.488Z,30.25
2022-11-22T16:03:56.017Z,30.98
2022-11-22T16:06:06.818Z,30.95
2022-11-22T16:07:33.623Z,32.65
2022-11-22T16:09:06.451Z,30.52
2022-11-22T16:10:42.693Z,29.67
2022-11-22T16:12:43.641Z,29.80
2022-11-22T16:14:47.967Z,31.77
2022-11-22T16:16:33.873Z,31.98
2022-11-22T16:18:27.589Z,29.38
2022-11-22T16:20:24.054Z,29.10
2022-11-22T16:22:00.416Z,30.42
2022-11-22T16:23:35.024Z,32.03
2022-11-22T16:25:28.688Z,29.40
2022-11-22T16:27:14.437Z,31.38
2022-11-22T16:28:47.653Z,29.90
2022-11-22T16:30:23.633Z,29.02
2022-11-22T16:32:00.503Z,30.45
2022-11-22T16:33:32.592Z,30.42
2022-11-22T16:35:28.587Z,29.70
2022-11-22T16:37:01.331Z,30.88
2022-11-22T16:38:33.071Z,33.40
2022-11-22T16:40:06.222Z,30.33
2022-11-22T16:41:37.957Z,31.25
2022-11-22T16:43:20.944Z,30.85
2022-11-22T16:44:52.703Z,29.20
2022-11-22T16:46:24.509Z,30.08
2022-11-22T16:48:24.114Z,29.27
2022-11-22T16:49:48.671Z,30.02
2022-11-22T16:51:28.149Z,29.73
2022-11-22T16:53:02.724Z,31.92
2022-11-22T16:54:34.779Z,31.50
2022-11-22T16:56:07.085Z,30.45
2022-11-22T16:57:38.809Z,33.63
2022-11-22T16:59:12.903Z,31.60
2022-11-22T17:00:46.676Z,31.15
2022-11-22T17:02:18.665Z,32.47
2022-11-22T17:03:55.988Z,32.80
2022-11-22T17:05:27.761Z,32.60
2022-11-22T17:06:59.490Z,30.45
2022-11-22T17:08:31.262Z,30.13
2022-11-22T17:10:03.290Z,32.30
2022-11-22T17:11:35.142Z,33.33
2022-11-22T17:13:07.016Z,33.72
2022-11-22T17:14:38.760Z,33.83
2022-11-22T17:16:11.816Z,33.60
2022-11-22T17:17:43.537Z,33.58
2022-11-22T17:19:52.213Z,32.10
2022-11-22T17:21:32.766Z,34.13
2022-11-22T17:23:13.973Z,34.05
2022-11-22T17:24:45.657Z,31.63
2022-11-22T17:26:17.447Z,33.50
2022-11-22T17:27:53.951Z,34.17
2022-11-22T17:29:49.255Z,34.15
2022-11-22T17:31:20.050Z,32.53
2022-11-22T17:32:51.960Z,32.35
2022-11-22T17:34:23.787Z,32.55
2022-11-22T17:35:55.823Z,33.00
2022-11-22T17:37:29.580Z,33.08
2022-11-22T17:39:06.645Z,33.03
2022-11-22T17:40:38.822Z,32.33
2022-11-22T17:42:12.130Z,33.78
2022-11-22T17:43:44.095Z,31.90
2022-11-22T17:45:16.163Z,34.13
2022-11-22T17:46:48.000Z,33.70
2022-11-22T17:48:19.750Z,30.83
2022-11-22T17:49:51.617Z,30.98
2022-11-22T17:51:24.087Z,32.20
2022-11-22T17:52:55.877Z,32.22
2022-11-22T17:54:27.600Z,29.90
2022-11-22T17:56:14.741Z,31.02
2022-11-22T17:57:47.837Z,30.45
2022-11-22T17:59:21.187Z,30.15
2022-11-22T18:00:52.954Z,31.85
2022-11-22T18:02:24.747Z,32.72
2022-11-22T18:03:56.521Z,31.02
2022-11-22T18:05:28.294Z,29.20
2022-11-22T18:07:00.049Z,28.90
2022-11-22T18:08:32.769Z,29.67
2022-11-22T18:10:09.781Z,32.45
2022-11-22T18:11:41.609Z,29.65
2022-11-22T18:13:21.175Z,31.38
2022-11-22T18:14:53.830Z,31.83
2022-11-22T18:16:28.682Z,29.48
2022-11-22T18:18:00.524Z,31.80
2022-11-22T18:19:32.488Z,29.92
2022-11-22T18:21:12.751Z,30.25
2022-11-22T18:22:47.475Z,31.02
2022-11-22T18:24:19.211Z,32.97
2022-11-22T18:25:51.557Z,30.83
2022-11-22T18:27:23.325Z,31.27
2022-11-22T18:29:24.617Z,31.42
2022-11-22T18:30:46.870Z,29.92
2022-11-22T18:32:18.668Z,29.48
2022-11-22T18:33:50.409Z,31.50
2022-11-22T18:35:22.180Z,29.98
2022-11-22T18:37:00.374Z,30.48
2022-11-22T18:38:35.410Z,28.67
2022-11-22T18:40:08.090Z,29.55
2022-11-22T18:41:39.871Z,27.67
2022-11-22T18:43:11.638Z,27.00
2022-11-22T18:44:43.430Z,28.60
2022-11-22T18:46:15.168Z,29.00
2022-11-22T18:47:46.925Z,29.27
2022-11-22T18:49:19.210Z,28.20
2022-11-22T18:50:50.941Z,28.50
2022-11-22T18:52:23.237Z,29.42
2022-11-22T18:53:55.010Z,28.58
2022-11-22T18:55:27.659Z,29.45
2022-11-22T18:56:59.422Z,30.38
2022-11-22T18:58:34.771Z,29.75
2022-11-22T19:00:07.483Z,27.52
2022-11-22T19:01:40.009Z,28.55
2022-11-22T19:03:11.842Z,27.67
2022-11-22T19:04:43.618Z,28.33
2022-11-22T19:06:17.678Z,28.95
2022-11-22T19:07:50.468Z,28.60
2022-11-22T19:09:22.306Z,29.92
2022-11-22T19:10:57.989Z,29.92
2022-11-22T19:12:30.014Z,29.95
2022-11-22T19:14:01.939Z,28.17
2022-11-22T19:15:33.713Z,30.60
2022-11-22T19:17:06.221Z,28.92
2022-11-22T19:18:42.710Z,27.10
2022-11-22T19:20:39.082Z,27.45
2022-11-22T19:22:06.945Z,29.10
2022-11-22T19:23:39.031Z,30.67
2022-11-22T19:25:10.906Z,29.23
2022-11-22T19:26:42.730Z,27.98
2022-11-22T19:28:14.493Z,28.00
2022-11-22T19:29:46.309Z,29.15
2022-11-22T19:31:23.386Z,26.63
2022-11-22T19:32:58.199Z,27.08
2022-11-22T19:34:30.107Z,28.95
2022-11-22T19:36:07.590Z,28.30
2022-11-22T19:37:39.314Z,26.65
2022-11-22T19:39:13.380Z,29.77
2022-11-22T19:40:45.194Z,26.48
2022-11-22T19:42:17.856Z,28.20
2022-11-22T19:43:50.631Z,26.70
2022-11-22T19:45:22.357Z,26.98
2022-11-22T19:46:54.235Z,28.48
2022-11-22T19:48:26.018Z,29.60
2022-11-22T19:49:57.823Z,27.77
2022-11-22T19:51:31.142Z,30.25
2022-11-22T19:53:02.954Z,28.65
2022-11-22T19:54:34.728Z,28.67
2022-11-22T19:56:11.214Z,27.38
2022-11-22T19:57:42.938Z,27.67
2022-11-22T19:59:16.489Z,29.55
2022-11-22T20:00:48.351Z,29.45
2022-11-22T20:02:20.180Z,29.25
2022-11-22T20:03:53.996Z,29.08
2022-11-22T20:05:26.078Z,27.75
2022-11-22T20:06:59.947Z,30.58
2022-11-22T20:08:32.129Z,28.42
2022-11-22T20:10:04.306Z,28.20
2022-11-22T20:11:36.677Z,28.35
2022-11-22T20:13:10.739Z,27.15
2022-11-22T20:14:42.775Z,28.48
2022-11-22T20:16:17.466Z,28.13
2022-11-22T20:17:49.236Z,28.65
2022-11-22T20:19:21.050Z,26.98
2022-11-22T20:21:00.373Z,28.77
2022-11-22T20:22:32.131Z,31.58
2022-11-22T20:24:04.801Z,30.70
2022-11-22T20:25:40.648Z,30.00
2022-11-22T20:27:13.999Z,28.73
2022-11-22T20:28:46.993Z,28.85
2022-11-22T20:30:18.844Z,27.45
2022-11-22T20:31:51.356Z,28.25
2022-11-22T20:33:23.080Z,27.65
2022-11-22T20:34:54.893Z,27.55
2022-11-22T20:36:32.558Z,28.98
2022-11-22T20:38:04.335Z,28.08
2022-11-22T20:39:37.495Z,28.50
2022-11-22T20:41:11.990Z,27.83
2022-11-22T20:42:43.753Z,27.83
2022-11-22T20:44:15.559Z,27.85
2022-11-22T20:45:47.309Z,27.40
2022-11-22T20:47:19.105Z,26.63
2022-11-22T20:48:54.775Z,27.15
2022-11-22T20:50:26.493Z,28.10
2022-11-22T20:51:58.315Z,28.63
2022-11-22T20:53:30.106Z,27.05
2022-11-22T20:55:05.003Z,26.20
2022-11-22T20:56:38.179Z,30.60
2022-11-22T20:58:10.061Z,29.00
2022-11-22T20:59:41.895Z,27.30
2022-11-22T21:01:19.556Z,29.02
2022-11-22T21:02:51.373Z,28.52
2022-11-22T21:04:23.136Z,29.40
2022-11-22T21:05:55.596Z,30.73
2022-11-22T21:07:27.361Z,30.50
2022-11-22T21:08:59.150Z,29.95
2022-11-22T21:10:31.829Z,30.77
2022-11-22T21:12:03.881Z,29.70
2022-11-22T21:13:35.684Z,29.38
2022-11-22T21:15:08.036Z,30.83
2022-11-22T21:16:40.156Z,30.10
2022-11-22T21:18:27.597Z,30.83
2022-11-22T21:19:59.365Z,32.13
2022-11-22T21:21:32.690Z,32.30
2022-11-22T21:23:04.968Z,33.05
2022-11-22T21:24:37.332Z,32.50
2022-11-22T21:26:09.115Z,30.23
2022-11-22T21:27:40.832Z,31.73
2022-11-22T21:29:16.660Z,31.88
2022-11-22T21:30:56.275Z,30.73
2022-11-22T21:32:28.084Z,31.35
2022-11-22T21:33:59.829Z,29.55